createdAt,value
2017-10-26T00:01:57.316Z,67.90
2017-10-26T00:04:24.817Z,67.90
2017-10-26T00:06:52.358Z,67.80
2017-10-26T00:09:19.863Z,67.70
2017-10-26T00:11:47.397Z,67.70
2017-10-26T00:14:14.902Z,67.60
2017-10-26T00:16:42.450Z,67.60
2017-10-26T00:19:09.945Z,67.50
2017-10-26T00:21:37.453Z,67.00
2017-10-26T00:24:05.030Z,67.10
2017-10-26T00:26:32.534Z,67.40
2017-10-26T00:29:00.029Z,67.30
2017-10-26T00:31:27.569Z,67.20
2017-10-26T00:33:55.842Z,67.60
2017-10-26T00:36:24.134Z,67.80
2017-10-26T00:38:51.648Z,67.80
2017-10-26T00:41:19.155Z,67.80
2017-10-26T00:43:46.685Z,67.40
2017-10-26T00:46:14.948Z,67.10
2017-10-26T00:48:42.465Z,67.10
2017-10-26T00:51:09.969Z,67.00
2017-10-26T00:53:37.508Z,66.70
2017-10-26T00:56:05.007Z,66.50
2017-10-26T00:58:32.501Z,66.00
2017-10-26T01:01:00.050Z,66.20
2017-10-26T01:03:27.558Z,66.50
2017-10-26T01:05:55.853Z,66.80
2017-10-26T01:08:23.360Z,66.80
2017-10-26T01:10:50.885Z,66.80
2017-10-26T01:13:18.385Z,66.70
2017-10-26T01:15:45.920Z,66.40
2017-10-26T01:18:13.437Z,66.20
2017-10-26T01:20:40.933Z,65.90
2017-10-26T01:23:08.472Z,65.90
2017-10-26T01:25:35.970Z,66.60
2017-10-26T01:28:03.482Z,66.80
2017-10-26T01:30:31.023Z,66.60
2017-10-26T01:32:58.532Z,65.60
2017-10-26T01:35:26.056Z,66.10
2017-10-26T01:37:53.561Z,66.30
2017-10-26T01:40:21.094Z,66.50
2017-10-26T01:42:48.601Z,66.70
2017-10-26T01:45:16.914Z,67.30
2017-10-26T01:47:44.418Z,67.30
2017-10-26T01:50:12.682Z,66.60
2017-10-26T01:52:40.223Z,66.50
2017-10-26T01:55:07.733Z,66.40
2017-10-26T01:57:35.258Z,66.40
2017-10-26T02:00:03.162Z,66.50
2017-10-26T02:02:30.713Z,66.70
2017-10-26T02:04:58.214Z,66.80
2017-10-26T02:07:25.717Z,66.00
2017-10-26T02:09:54.007Z,66.20
2017-10-26T02:12:21.515Z,66.20
2017-10-26T02:14:49.033Z,66.20
2017-10-26T02:17:16.541Z,66.40
2017-10-26T02:19:44.080Z,66.60
2017-10-26T02:22:11.618Z,66.70
2017-10-26T02:24:39.152Z,66.60
2017-10-26T02:27:06.679Z,66.00
2017-10-26T02:29:46.774Z,66.10
2017-10-26T02:32:14.301Z,66.00
2017-10-26T02:34:42.601Z,66.10
2017-10-26T02:37:10.137Z,66.10
2017-10-26T02:39:37.650Z,66.60
2017-10-26T02:42:05.181Z,66.80
2017-10-26T02:44:32.694Z,66.80
2017-10-26T02:47:00.999Z,67.00
2017-10-26T02:49:28.505Z,67.00
2017-10-26T02:51:56.002Z,67.20
2017-10-26T02:54:23.528Z,67.50
2017-10-26T02:56:51.021Z,68.20
2017-10-26T02:59:18.552Z,68.30
2017-10-26T03:01:46.832Z,68.40
2017-10-26T03:04:15.116Z,68.00
2017-10-26T03:06:43.383Z,68.50
2017-10-26T03:09:11.683Z,68.80
2017-10-26T03:11:41.421Z,68.30
2017-10-26T03:14:08.962Z,68.00
2017-10-26T03:16:36.461Z,68.00
2017-10-26T03:19:03.991Z,67.90
2017-10-26T03:21:31.540Z,67.70
2017-10-26T03:23:59.050Z,67.50
2017-10-26T03:26:27.319Z,68.20
2017-10-26T03:28:55.629Z,68.30
2017-10-26T03:31:23.125Z,68.20
2017-10-26T03:33:50.625Z,68.50
2017-10-26T03:36:18.144Z,69.00
2017-10-26T03:38:45.678Z,69.30
2017-10-26T03:41:13.185Z,69.30
2017-10-26T03:43:41.456Z,69.50
2017-10-26T03:46:09.735Z,69.30
2017-10-26T03:48:38.025Z,69.10
2017-10-26T03:51:05.571Z,69.10
2017-10-26T03:53:33.830Z,68.60
2017-10-26T03:56:02.125Z,68.70
2017-10-26T03:58:30.429Z,68.70
2017-10-26T04:00:57.979Z,68.70
2017-10-26T04:03:26.264Z,68.10
2017-10-26T04:05:53.772Z,68.20
2017-10-26T04:08:22.069Z,67.80
2017-10-26T04:10:49.596Z,67.80
2017-10-26T04:13:17.100Z,67.60
2017-10-26T04:15:44.625Z,67.60
2017-10-26T04:18:12.911Z,67.70
2017-10-26T04:20:41.221Z,67.80
2017-10-26T04:23:08.755Z,67.80
2017-10-26T04:25:36.256Z,67.80
2017-10-26T04:28:03.797Z,67.60
2017-10-26T04:30:31.302Z,67.80
2017-10-26T04:32:59.606Z,68.10
2017-10-26T04:35:27.138Z,68.10
2017-10-26T04:37:55.407Z,68.90
2017-10-26T04:40:23.724Z,68.90
2017-10-26T04:42:51.217Z,68.90
2017-10-26T04:45:18.750Z,69.30
2017-10-26T04:47:46.259Z,69.10
2017-10-26T04:50:14.552Z,68.30
2017-10-26T04:52:42.059Z,68.30
2017-10-26T04:55:14.344Z,68.10
2017-10-26T04:57:42.169Z,67.90
2017-10-26T05:00:10.582Z,68.00
2017-10-26T05:02:38.252Z,67.90
2017-10-26T05:05:26.592Z,67.70
2017-10-26T05:07:54.229Z,67.70
2017-10-26T05:10:21.729Z,67.80
2017-10-26T05:12:49.227Z,67.90
2017-10-26T05:15:16.745Z,67.80
2017-10-26T05:17:44.245Z,67.80
2017-10-26T05:20:11.749Z,68.30
2017-10-26T05:22:39.258Z,67.40
2017-10-26T05:25:06.775Z,67.10
2017-10-26T05:27:34.260Z,66.90
2017-10-26T05:30:01.789Z,66.80
2017-10-26T05:32:29.290Z,66.60
2017-10-26T05:34:56.816Z,66.60
2017-10-26T05:37:25.114Z,66.30
2017-10-26T05:39:52.623Z,66.30
2017-10-26T05:42:20.154Z,66.30
2017-10-26T05:44:47.652Z,66.20
2017-10-26T05:47:15.960Z,65.90
2017-10-26T05:49:43.458Z,65.90
2017-10-26T05:52:10.953Z,65.90
2017-10-26T05:54:38.474Z,65.90
2017-10-26T05:57:06.012Z,66.30
2017-10-26T05:59:33.555Z,66.70
2017-10-26T06:02:01.057Z,66.90
2017-10-26T06:04:28.549Z,66.80
2017-10-26T06:06:56.074Z,66.40
2017-10-26T06:09:23.569Z,66.40
2017-10-26T06:11:51.092Z,66.40
2017-10-26T06:14:18.644Z,66.20
2017-10-26T06:16:46.137Z,65.80
2017-10-26T06:19:13.643Z,66.60
2017-10-26T06:21:41.179Z,66.70
2017-10-26T06:24:08.709Z,66.70
2017-10-26T06:26:36.255Z,66.90
2017-10-26T06:29:04.525Z,67.20
2017-10-26T06:31:32.810Z,67.40
2017-10-26T06:34:00.334Z,67.50
2017-10-26T06:36:27.843Z,67.60
2017-10-26T06:38:55.378Z,68.00
2017-10-26T06:41:22.892Z,67.90
2017-10-26T06:43:50.431Z,67.80
2017-10-26T06:46:17.922Z,68.10
2017-10-26T06:48:45.465Z,68.20
2017-10-26T06:51:12.969Z,68.20
2017-10-26T06:53:40.490Z,68.50
2017-10-26T06:56:08.038Z,69.50
2017-10-26T06:58:35.554Z,69.80
2017-10-26T07:01:03.052Z,70.00
2017-10-26T07:03:30.584Z,70.20
2017-10-26T07:05:58.117Z,70.40
2017-10-26T07:08:25.654Z,70.50
2017-10-26T07:10:53.931Z,71.00
2017-10-26T07:13:22.206Z,71.30
2017-10-26T07:15:50.514Z,71.50
2017-10-26T07:18:18.032Z,71.50
2017-10-26T07:20:46.320Z,72.50
2017-10-26T07:23:13.869Z,71.80
2017-10-26T07:25:42.187Z,72.20
2017-10-26T07:28:09.693Z,72.30
2017-10-26T07:30:37.967Z,73.30
2017-10-26T07:33:05.500Z,73.30
2017-10-26T07:35:33.001Z,73.70
2017-10-26T07:38:01.303Z,73.90
2017-10-26T07:40:28.852Z,73.90
2017-10-26T07:42:56.349Z,73.80
2017-10-26T07:45:23.857Z,73.80
2017-10-26T07:47:51.377Z,73.80
2017-10-26T07:50:18.913Z,74.20
2017-10-26T07:52:46.438Z,73.90
2017-10-26T07:55:13.927Z,74.00
2017-10-26T07:57:41.458Z,74.20
2017-10-26T08:00:08.956Z,74.30
2017-10-26T08:02:36.489Z,74.60
2017-10-26T08:05:04.005Z,74.70
2017-10-26T08:07:31.576Z,75.00
2017-10-26T08:09:59.074Z,75.30
2017-10-26T08:12:26.568Z,75.60
2017-10-26T08:14:54.860Z,76.10
2017-10-26T08:17:22.359Z,76.10
2017-10-26T08:19:49.912Z,76.10
2017-10-26T08:22:17.412Z,76.50
2017-10-26T08:24:45.673Z,77.20
2017-10-26T08:27:13.194Z,77.20
2017-10-26T08:29:40.741Z,78.10
2017-10-26T08:32:08.250Z,78.50
2017-10-26T08:34:36.516Z,78.60
2017-10-26T08:37:04.055Z,78.50
2017-10-26T08:39:31.580Z,78.80
2017-10-26T08:41:59.087Z,79.30
2017-10-26T08:44:26.645Z,79.80
2017-10-26T08:46:54.146Z,79.50
2017-10-26T08:49:21.645Z,79.50
2017-10-26T08:51:49.182Z,79.40
2017-10-26T08:54:16.709Z,79.50
2017-10-26T08:56:44.237Z,80.10
2017-10-26T08:59:12.533Z,80.60
2017-10-26T09:01:40.057Z,80.60
2017-10-26T09:04:07.545Z,80.90
2017-10-26T09:06:35.097Z,81.40
2017-10-26T09:09:03.387Z,81.90
2017-10-26T09:11:30.896Z,82.00
2017-10-26T09:13:58.436Z,82.10
2017-10-26T09:16:25.954Z,82.10
2017-10-26T09:18:53.480Z,82.00
2017-10-26T09:21:20.974Z,81.20
2017-10-26T09:23:48.520Z,80.60
2017-10-26T09:26:16.789Z,79.60
2017-10-26T09:28:45.062Z,78.90
2017-10-26T09:31:13.349Z,78.50
2017-10-26T09:33:40.878Z,78.40
2017-10-26T09:36:08.382Z,78.10
2017-10-26T09:38:35.910Z,77.70
2017-10-26T09:41:04.207Z,76.60
2017-10-26T09:43:31.729Z,76.50
2017-10-26T09:46:00.002Z,76.60
2017-10-26T09:48:27.545Z,76.60
2017-10-26T09:50:55.049Z,76.50
2017-10-26T09:53:22.548Z,76.10
2017-10-26T09:55:50.105Z,75.90
2017-10-26T09:58:17.599Z,75.00
2017-10-26T10:00:45.866Z,74.40
2017-10-26T10:03:14.160Z,74.40
2017-10-26T10:05:41.685Z,74.40
2017-10-26T10:08:09.222Z,73.90
2017-10-26T10:10:36.717Z,74.10
2017-10-26T10:13:05.032Z,73.80
2017-10-26T10:15:32.536Z,73.80
2017-10-26T10:18:00.055Z,73.50
2017-10-26T10:20:27.565Z,72.60
2017-10-26T10:22:55.837Z,73.80
2017-10-26T10:25:24.101Z,73.40
2017-10-26T10:27:52.381Z,73.00
2017-10-26T10:30:19.898Z,73.00
2017-10-26T10:32:47.406Z,72.90
2017-10-26T10:35:15.680Z,73.10
2017-10-26T10:37:43.944Z,73.90
2017-10-26T10:40:11.441Z,73.90
2017-10-26T10:42:38.971Z,73.70
2017-10-26T10:45:06.489Z,74.00
2017-10-26T10:47:33.991Z,74.30
2017-10-26T10:50:01.511Z,74.40
2017-10-26T10:52:29.009Z,74.40
2017-10-26T10:54:56.514Z,74.50
2017-10-26T10:57:24.025Z,74.30
2017-10-26T10:59:57.105Z,74.50
2017-10-26T11:02:25.484Z,74.80
2017-10-26T11:04:52.988Z,74.80
2017-10-26T11:07:20.477Z,74.60
2017-10-26T11:09:48.767Z,74.40
2017-10-26T11:12:17.030Z,74.50
2017-10-26T11:14:45.299Z,74.80
2017-10-26T11:17:13.591Z,74.90
2017-10-26T11:19:41.862Z,75.70
2017-10-26T11:22:10.151Z,75.50
2017-10-26T11:24:37.666Z,75.50
2017-10-26T11:27:05.176Z,75.30
2017-10-26T11:29:32.678Z,74.80
2017-10-26T11:32:00.194Z,74.30
2017-10-26T11:34:27.692Z,74.40
2017-10-26T11:36:55.192Z,74.30
2017-10-26T11:39:22.711Z,74.40
2017-10-26T11:41:50.204Z,74.50
2017-10-26T11:44:17.701Z,74.70
2017-10-26T11:46:45.239Z,74.20
2017-10-26T11:49:12.744Z,74.40
2017-10-26T11:51:40.245Z,74.20
2017-10-26T11:54:07.765Z,73.90
2017-10-26T11:56:36.037Z,74.30
2017-10-26T11:59:04.310Z,74.30
2017-10-26T12:01:31.838Z,74.20
2017-10-26T12:03:59.339Z,73.90
2017-10-26T12:06:27.657Z,73.50
2017-10-26T12:08:55.287Z,73.40
2017-10-26T12:11:22.789Z,72.70
2017-10-26T12:13:50.293Z,72.50
2017-10-26T12:16:17.814Z,72.40
2017-10-26T12:18:45.308Z,72.00
2017-10-26T12:21:13.568Z,71.70
2017-10-26T12:23:41.965Z,70.80
2017-10-26T12:26:09.478Z,70.80
2017-10-26T12:28:36.980Z,71.20
2017-10-26T12:31:04.606Z,71.00
2017-10-26T12:33:32.114Z,70.80
2017-10-26T12:35:59.731Z,70.70
2017-10-26T12:38:28.004Z,70.30
2017-10-26T12:40:56.281Z,69.80
2017-10-26T12:43:24.563Z,69.50
2017-10-26T12:45:52.082Z,69.50
2017-10-26T12:48:19.584Z,69.60
2017-10-26T12:50:48.298Z,69.70
2017-10-26T12:53:15.816Z,69.70
2017-10-26T12:55:44.094Z,69.10
2017-10-26T12:58:12.370Z,69.20
2017-10-26T13:00:40.657Z,68.10
2017-10-26T13:03:09.007Z,68.10
2017-10-26T13:05:36.504Z,68.30
2017-10-26T13:08:04.014Z,68.50
2017-10-26T13:10:31.524Z,68.40
2017-10-26T13:12:59.036Z,68.20
2017-10-26T13:15:26.558Z,68.50
2017-10-26T13:17:54.057Z,68.10
2017-10-26T13:20:22.317Z,68.30
2017-10-26T13:22:49.855Z,68.30
2017-10-26T13:25:17.359Z,68.20
2017-10-26T13:27:45.616Z,68.30
2017-10-26T13:30:14.009Z,68.10
2017-10-26T13:32:41.517Z,68.10
2017-10-26T13:35:09.023Z,68.10
2017-10-26T13:37:37.296Z,67.70
2017-10-26T13:40:05.572Z,67.80
2017-10-26T13:42:33.839Z,68.00
2017-10-26T13:45:02.352Z,68.10
2017-10-26T13:47:29.858Z,68.00
2017-10-26T13:49:57.359Z,68.10
2017-10-26T13:52:24.880Z,68.10
2017-10-26T13:54:53.148Z,68.10
2017-10-26T13:57:20.634Z,68.10
2017-10-26T13:59:48.161Z,67.70
2017-10-26T14:02:15.666Z,67.90
2017-10-26T14:04:43.156Z,68.10
2017-10-26T14:07:10.661Z,67.40
2017-10-26T14:09:38.157Z,67.50
2017-10-26T14:12:05.653Z,67.90
2017-10-26T14:14:34.040Z,67.80
2017-10-26T14:17:02.299Z,68.00
2017-10-26T14:19:29.813Z,68.00
2017-10-26T14:21:57.462Z,68.00
2017-10-26T14:24:24.965Z,67.90
2017-10-26T14:26:52.483Z,68.10
2017-10-26T14:29:20.034Z,67.80
2017-10-26T14:31:47.533Z,67.90
2017-10-26T14:34:15.043Z,68.20
2017-10-26T14:36:42.557Z,68.50
2017-10-26T14:39:10.055Z,68.20
2017-10-26T14:41:37.546Z,68.20
2017-10-26T14:44:05.082Z,68.10
2017-10-26T14:46:32.600Z,68.20
2017-10-26T14:49:00.885Z,68.20
2017-10-26T14:51:28.400Z,68.10
2017-10-26T14:53:55.906Z,68.20
2017-10-26T14:56:23.420Z,68.30
2017-10-26T14:58:50.933Z,68.30
2017-10-26T15:01:18.453Z,68.10
2017-10-26T15:03:46.729Z,68.40
2017-10-26T15:06:15.016Z,68.30
2017-10-26T15:08:42.522Z,68.30
2017-10-26T15:11:10.041Z,68.40
2017-10-26T15:13:37.562Z,68.70
2017-10-26T15:16:05.843Z,68.60
2017-10-26T15:18:34.105Z,68.60
2017-10-26T15:21:02.381Z,68.60
2017-10-26T15:23:29.887Z,68.40
2017-10-26T15:25:57.396Z,68.40
2017-10-26T15:28:24.916Z,68.30
2017-10-26T15:30:52.430Z,68.40
2017-10-26T15:33:20.701Z,68.60
2017-10-26T15:35:49.009Z,68.60
2017-10-26T15:38:16.502Z,68.60
2017-10-26T15:40:44.014Z,68.90
2017-10-26T15:43:11.541Z,68.90
2017-10-26T15:45:39.800Z,69.30
2017-10-26T15:48:07.296Z,69.20
2017-10-26T15:50:34.828Z,69.50
2017-10-26T15:53:03.092Z,69.70
2017-10-26T15:55:30.586Z,69.70
2017-10-26T15:57:58.226Z,69.80
2017-10-26T16:00:26.502Z,69.90
2017-10-26T16:02:54.010Z,69.90
2017-10-26T16:05:21.539Z,69.90
2017-10-26T16:07:49.046Z,70.00
2017-10-26T16:10:16.550Z,70.00
2017-10-26T16:12:44.076Z,70.10
2017-10-26T16:15:11.579Z,70.30
2017-10-26T16:17:39.076Z,70.20
2017-10-26T16:20:06.591Z,70.30
2017-10-26T16:22:34.093Z,70.30
2017-10-26T16:25:01.585Z,70.30
2017-10-26T16:27:29.095Z,70.30
2017-10-26T16:29:56.590Z,70.40
2017-10-26T16:32:24.849Z,70.30
2017-10-26T16:34:52.391Z,70.30
2017-10-26T16:37:19.895Z,70.30
2017-10-26T16:39:47.399Z,70.10
2017-10-26T16:42:14.904Z,70.00
2017-10-26T16:44:42.405Z,70.00
2017-10-26T16:47:09.897Z,69.90
2017-10-26T16:49:38.205Z,69.90
2017-10-26T16:52:05.707Z,69.80
2017-10-26T16:54:33.206Z,69.60
2017-10-26T16:57:00.823Z,69.60
2017-10-26T16:59:28.325Z,69.60
2017-10-26T17:01:55.820Z,69.70
2017-10-26T17:04:23.451Z,69.50
2017-10-26T17:06:51.022Z,69.30
2017-10-26T17:09:19.290Z,69.00
2017-10-26T17:11:46.847Z,69.00
2017-10-26T17:14:14.354Z,69.10
2017-10-26T17:16:41.869Z,69.10
2017-10-26T17:19:15.156Z,69.10
2017-10-26T17:21:46.683Z,69.10
2017-10-26T17:24:14.310Z,69.30
2017-10-26T17:26:41.810Z,69.30
2017-10-26T17:29:09.342Z,69.10
2017-10-26T17:31:36.862Z,68.80
2017-10-26T17:34:04.470Z,69.00
2017-10-26T17:36:31.964Z,69.00
2017-10-26T17:39:00.267Z,69.10
2017-10-26T17:41:28.571Z,69.50
2017-10-26T17:43:56.129Z,68.90
2017-10-26T17:46:23.632Z,68.30
2017-10-26T17:48:51.937Z,68.80
2017-10-26T17:51:19.436Z,68.80
2017-10-26T17:53:46.942Z,68.80
2017-10-26T17:56:14.468Z,69.00
2017-10-26T17:58:42.739Z,69.40
2017-10-26T18:01:10.293Z,69.30
2017-10-26T18:03:37.810Z,69.30
2017-10-26T18:06:05.334Z,68.80
2017-10-26T18:08:32.884Z,69.00
2017-10-26T18:11:00.415Z,69.10
2017-10-26T18:13:27.967Z,69.20
2017-10-26T18:15:55.487Z,69.30
2017-10-26T18:18:23.009Z,69.30
2017-10-26T18:20:51.294Z,69.30
2017-10-26T18:23:18.992Z,69.30
2017-10-26T18:25:46.570Z,69.30
2017-10-26T18:28:14.065Z,69.20
2017-10-26T18:30:42.376Z,69.10
2017-10-26T18:33:09.863Z,69.00
2017-10-26T18:35:37.412Z,69.00
2017-10-26T18:38:04.901Z,69.00
2017-10-26T18:40:33.519Z,69.10
2017-10-26T18:43:01.031Z,69.10
2017-10-26T18:45:28.557Z,68.70
2017-10-26T18:47:56.091Z,69.00
2017-10-26T18:50:23.649Z,68.90
2017-10-26T18:52:51.195Z,68.80
2017-10-26T18:55:18.696Z,69.10
2017-10-26T18:57:46.195Z,69.30
2017-10-26T19:00:14.550Z,69.30
2017-10-26T19:02:42.058Z,69.20
2017-10-26T19:05:09.605Z,69.30
2017-10-26T19:07:37.126Z,69.30
2017-10-26T19:10:04.694Z,69.30
2017-10-26T19:12:32.991Z,69.60
2017-10-26T19:15:00.523Z,69.60
2017-10-26T19:17:28.024Z,69.80
2017-10-26T19:19:55.572Z,69.90
2017-10-26T19:22:23.114Z,70.10
2017-10-26T19:24:50.685Z,69.90
2017-10-26T19:27:18.214Z,69.80
2017-10-26T19:29:46.574Z,69.70
2017-10-26T19:32:14.159Z,69.60
2017-10-26T19:34:42.429Z,69.30
2017-10-26T19:37:10.701Z,69.40
2017-10-26T19:39:39.047Z,69.10
2017-10-26T19:42:06.558Z,69.10
2017-10-26T19:44:34.104Z,69.30
2017-10-26T19:47:01.605Z,69.30
2017-10-26T19:49:29.133Z,69.40
2017-10-26T19:51:56.783Z,69.30
2017-10-26T19:54:24.305Z,69.10
2017-10-26T19:56:51.801Z,69.10
2017-10-26T19:59:19.337Z,69.30
2017-10-26T20:01:47.594Z,69.30
2017-10-26T20:04:15.188Z,69.30
2017-10-26T20:06:42.697Z,69.30
2017-10-26T20:09:10.201Z,69.30
2017-10-26T20:11:37.786Z,69.30
2017-10-26T20:14:06.062Z,69.50
2017-10-26T20:16:34.328Z,69.50
2017-10-26T20:19:01.920Z,69.50
2017-10-26T20:21:29.424Z,69.50
2017-10-26T20:23:56.928Z,69.50
2017-10-26T20:26:24.450Z,69.50
2017-10-26T20:28:51.973Z,69.40
2017-10-26T20:31:19.479Z,69.50
2017-10-26T20:33:48.404Z,69.50
2017-10-26T20:36:15.944Z,69.40
2017-10-26T20:38:43.539Z,69.40
2017-10-26T20:41:11.051Z,69.40
2017-10-26T20:43:39.322Z,69.80
2017-10-26T20:46:07.631Z,69.80
2017-10-26T20:48:35.165Z,69.70
2017-10-26T20:51:08.294Z,69.70
2017-10-26T20:53:41.464Z,69.70
2017-10-26T20:56:14.744Z,69.70
2017-10-26T21:01:59.956Z,69.40
2017-10-26T21:04:33.099Z,69.60
2017-10-26T21:07:01.382Z,69.60
2017-10-26T21:09:29.642Z,69.80
2017-10-26T21:15:03.850Z,69.70
2017-10-26T21:17:31.367Z,69.80
2017-10-26T21:19:58.861Z,69.90
2017-10-26T21:22:26.373Z,69.90
2017-10-26T21:24:53.885Z,70.00
2017-10-26T21:27:21.383Z,70.00
2017-10-26T21:29:48.880Z,70.10
2017-10-26T21:32:16.419Z,70.10
2017-10-26T21:34:43.974Z,70.20
2017-10-26T21:37:11.514Z,70.30
2017-10-26T21:39:39.018Z,70.10
2017-10-26T21:42:06.509Z,70.40
2017-10-26T21:44:34.028Z,70.30
2017-10-26T21:47:01.534Z,70.50
2017-10-26T21:49:29.061Z,70.60
2017-10-26T21:51:56.593Z,70.70
2017-10-26T21:54:24.097Z,70.90
2017-10-26T21:56:52.492Z,70.80
2017-10-26T21:59:19.994Z,70.80
2017-10-26T22:01:47.494Z,70.90
2017-10-26T22:04:15.020Z,71.00
2017-10-26T22:06:42.541Z,70.90
2017-10-26T22:09:10.048Z,71.10
2017-10-26T22:11:38.324Z,71.00
2017-10-26T22:14:06.585Z,70.90
2017-10-26T22:16:34.077Z,71.00
2017-10-26T22:19:01.585Z,71.00
2017-10-26T22:21:29.090Z,71.10
2017-10-26T22:23:56.598Z,71.20
2017-10-26T22:26:24.124Z,71.00
2017-10-26T22:28:51.622Z,71.00
2017-10-26T22:31:19.137Z,71.00
2017-10-26T22:33:46.659Z,71.10
2017-10-26T22:36:14.932Z,71.30
2017-10-26T22:38:43.197Z,71.30
2017-10-26T22:41:10.821Z,71.30
2017-10-26T22:43:38.318Z,71.40
2017-10-26T22:46:06.597Z,71.40
2017-10-26T22:48:34.977Z,71.20
2017-10-26T22:51:03.260Z,70.90
2017-10-26T22:53:31.528Z,70.70
2017-10-26T22:55:59.829Z,70.60
2017-10-26T22:58:27.328Z,70.60
2017-10-26T23:00:54.831Z,70.40
2017-10-26T23:03:22.453Z,70.20
2017-10-26T23:05:49.964Z,70.20
2017-10-26T23:08:17.465Z,70.00
2017-10-26T23:10:45.105Z,70.00
2017-10-26T23:13:12.613Z,70.00
2017-10-26T23:15:40.878Z,69.20
2017-10-26T23:18:09.157Z,69.00
2017-10-26T23:20:37.416Z,68.70
2017-10-26T23:23:04.927Z,68.70
2017-10-26T23:25:32.442Z,68.80
2017-10-26T23:28:00.719Z,68.00
2017-10-26T23:30:28.994Z,67.50
2017-10-26T23:32:57.272Z,66.90
2017-10-26T23:35:25.529Z,67.20
2017-10-26T23:37:53.030Z,67.20
2017-10-26T23:40:20.549Z,67.30
2017-10-26T23:42:48.825Z,67.30
2017-10-26T23:45:16.321Z,67.30
2017-10-26T23:47:43.837Z,67.30
2017-10-26T23:50:12.105Z,67.30
2017-10-26T23:52:39.610Z,67.30
2017-10-26T23:55:07.224Z,67.30
2017-10-26T23:57:35.506Z,66.90
